sensor_id;sensor_type;location;lat;lon;timestamp;P1;durP1;ratioP1;P2;durP2;ratioP2
13799;SDS011;6971;50.028;9.258;2024-03-29T00:01:23;1.23;;;0.80;;
13799;SDS011;6971;50.028;9.258;2024-03-29T00:06:24;1.23;;;0.80;;
13799;SDS011;6971;50.028;9.258;2024-03-29T00:11:24;0.87;;;0.87;;
13799;SDS011;6971;50.028;9.258;2024-03-29T00:16:24;0.40;;;0.40;;
13799;SDS011;6971;50.028;9.258;2024-03-29T00:21:25;0.83;;;0.60;;
13799;SDS011;6971;50.028;9.258;2024-03-29T00:26:26;2.23;;;0.77;;
13799;SDS011;6971;50.028;9.258;2024-03-29T00:31:26;0.90;;;0.80;;
13799;SDS011;6971;50.028;9.258;2024-03-29T00:36:26;1.17;;;1.00;;
13799;SDS011;6971;50.028;9.258;2024-03-29T00:41:27;1.63;;;0.70;;
13799;SDS011;6971;50.028;9.258;2024-03-29T00:46:27;2.40;;;0.97;;
13799;SDS011;6971;50.028;9.258;2024-03-29T00:51:27;1.17;;;0.80;;
13799;SDS011;6971;50.028;9.258;2024-03-29T00:56:28;0.73;;;0.73;;
13799;SDS011;6971;50.028;9.258;2024-03-29T01:01:28;0.90;;;0.87;;
13799;SDS011;6971;50.028;9.258;2024-03-29T01:06:28;6.67;;;1.00;;
13799;SDS011;6971;50.028;9.258;2024-03-29T01:11:29;3.53;;;0.90;;
13799;SDS011;6971;50.028;9.258;2024-03-29T01:16:30;3.70;;;0.90;;
13799;SDS011;6971;50.028;9.258;2024-03-29T01:21:30;0.70;;;0.70;;
13799;SDS011;6971;50.028;9.258;2024-03-29T01:26:31;0.77;;;0.77;;
13799;SDS011;6971;50.028;9.258;2024-03-29T01:31:31;1.17;;;0.70;;
13799;SDS011;6971;50.028;9.258;2024-03-29T01:36:31;2.83;;;0.70;;
13799;SDS011;6971;50.028;9.258;2024-03-29T01:41:32;7.53;;;2.27;;
13799;SDS011;6971;50.028;9.258;2024-03-29T01:46:32;1.70;;;0.80;;
13799;SDS011;6971;50.028;9.258;2024-03-29T01:51:36;0.70;;;0.70;;
13799;SDS011;6971;50.028;9.258;2024-03-29T01:56:39;0.97;;;0.60;;
13799;SDS011;6971;50.028;9.258;2024-03-29T02:01:41;1.40;;;0.90;;
13799;SDS011;6971;50.028;9.258;2024-03-29T02:06:42;1.17;;;0.93;;
13799;SDS011;6971;50.028;9.258;2024-03-29T02:11:43;0.83;;;0.83;;
13799;SDS011;6971;50.028;9.258;2024-03-29T02:16:43;0.77;;;0.63;;
13799;SDS011;6971;50.028;9.258;2024-03-29T02:21:45;0.57;;;0.57;;
13799;SDS011;6971;50.028;9.258;2024-03-29T02:26:49;2.40;;;0.67;;
13799;SDS011;6971;50.028;9.258;2024-03-29T02:31:50;1.47;;;1.00;;
13799;SDS011;6971;50.028;9.258;2024-03-29T02:36:50;2.57;;;1.10;;
13799;SDS011;6971;50.028;9.258;2024-03-29T02:41:51;1.60;;;0.80;;
13799;SDS011;6971;50.028;9.258;2024-03-29T02:46:51;1.00;;;0.90;;
13799;SDS011;6971;50.028;9.258;2024-03-29T02:51:52;0.80;;;0.80;;
13799;SDS011;6971;50.028;9.258;2024-03-29T02:56:53;5.97;;;1.00;;
13799;SDS011;6971;50.028;9.258;2024-03-29T03:01:53;0.57;;;0.57;;
13799;SDS011;6971;50.028;9.258;2024-03-29T03:06:53;0.83;;;0.73;;
13799;SDS011;6971;50.028;9.258;2024-03-29T03:11:55;0.97;;;0.70;;
13799;SDS011;6971;50.028;9.258;2024-03-29T03:16:56;1.03;;;0.70;;
13799;SDS011;6971;50.028;9.258;2024-03-29T03:21:57;1.23;;;0.60;;
13799;SDS011;6971;50.028;9.258;2024-03-29T03:26:57;1.13;;;0.73;;
13799;SDS011;6971;50.028;9.258;2024-03-29T03:31:58;1.83;;;0.80;;
13799;SDS011;6971;50.028;9.258;2024-03-29T03:36:58;1.53;;;0.70;;
13799;SDS011;6971;50.028;9.258;2024-03-29T03:41:58;1.13;;;0.97;;
13799;SDS011;6971;50.028;9.258;2024-03-29T03:46:59;0.60;;;0.60;;
13799;SDS011;6971;50.028;9.258;2024-03-29T03:51:59;0.77;;;0.77;;
13799;SDS011;6971;50.028;9.258;2024-03-29T03:56:59;2.13;;;1.10;;
13799;SDS011;6971;50.028;9.258;2024-03-29T04:02:00;0.63;;;0.63;;
13799;SDS011;6971;50.028;9.258;2024-03-29T04:07:00;1.00;;;0.90;;
13799;SDS011;6971;50.028;9.258;2024-03-29T04:12:01;0.50;;;0.50;;
13799;SDS011;6971;50.028;9.258;2024-03-29T04:17:01;2.33;;;0.80;;
13799;SDS011;6971;50.028;9.258;2024-03-29T04:22:01;0.80;;;0.70;;
13799;SDS011;6971;50.028;9.258;2024-03-29T04:27:02;1.17;;;0.70;;
13799;SDS011;6971;50.028;9.258;2024-03-29T04:32:04;2.63;;;0.70;;
13799;SDS011;6971;50.028;9.258;2024-03-29T04:37:04;0.60;;;0.57;;
13799;SDS011;6971;50.028;9.258;2024-03-29T04:42:05;0.60;;;0.60;;
13799;SDS011;6971;50.028;9.258;2024-03-29T04:47:05;1.33;;;0.87;;
13799;SDS011;6971;50.028;9.258;2024-03-29T04:52:06;0.67;;;0.60;;
13799;SDS011;6971;50.028;9.258;2024-03-29T04:57:06;0.67;;;0.67;;
13799;SDS011;6971;50.028;9.258;2024-03-29T05:02:07;1.83;;;0.80;;
13799;SDS011;6971;50.028;9.258;2024-03-29T05:07:07;0.53;;;0.53;;
13799;SDS011;6971;50.028;9.258;2024-03-29T05:12:07;1.00;;;0.47;;
13799;SDS011;6971;50.028;9.258;2024-03-29T05:17:08;0.40;;;0.40;;
13799;SDS011;6971;50.028;9.258;2024-03-29T05:22:08;0.53;;;0.50;;
13799;SDS011;6971;50.028;9.258;2024-03-29T05:27:09;0.60;;;0.40;;
13799;SDS011;6971;50.028;9.258;2024-03-29T05:32:09;0.90;;;0.70;;
13799;SDS011;6971;50.028;9.258;2024-03-29T05:37:09;0.87;;;0.67;;
13799;SDS011;6971;50.028;9.258;2024-03-29T05:42:10;0.80;;;0.70;;
13799;SDS011;6971;50.028;9.258;2024-03-29T05:47:10;0.83;;;0.53;;
13799;SDS011;6971;50.028;9.258;2024-03-29T05:52:10;0.57;;;0.57;;
13799;SDS011;6971;50.028;9.258;2024-03-29T05:57:13;0.70;;;0.70;;
13799;SDS011;6971;50.028;9.258;2024-03-29T06:02:14;0.80;;;0.80;;
13799;SDS011;6971;50.028;9.258;2024-03-29T06:07:14;0.70;;;0.70;;
13799;SDS011;6971;50.028;9.258;2024-03-29T06:12:15;0.50;;;0.50;;
13799;SDS011;6971;50.028;9.258;2024-03-29T06:17:15;1.00;;;0.53;;
13799;SDS011;6971;50.028;9.258;2024-03-29T06:22:25;0.70;;;0.60;;
13799;SDS011;6971;50.028;9.258;2024-03-29T06:27:25;1.33;;;0.90;;
13799;SDS011;6971;50.028;9.258;2024-03-29T06:32:26;0.60;;;0.60;;
13799;SDS011;6971;50.028;9.258;2024-03-29T06:37:26;0.60;;;0.60;;
13799;SDS011;6971;50.028;9.258;2024-03-29T06:42:28;1.03;;;0.93;;
13799;SDS011;6971;50.028;9.258;2024-03-29T06:47:28;1.77;;;1.43;;
13799;SDS011;6971;50.028;9.258;2024-03-29T06:52:29;2.17;;;1.50;;
13799;SDS011;6971;50.028;9.258;2024-03-29T06:57:30;10.07;;;4.30;;
13799;SDS011;6971;50.028;9.258;2024-03-29T07:02:31;4.93;;;2.20;;
13799;SDS011;6971;50.028;9.258;2024-03-29T07:07:32;5.00;;;2.20;;
13799;SDS011;6971;50.028;9.258;2024-03-29T07:12:32;2.70;;;2.23;;
13799;SDS011;6971;50.028;9.258;2024-03-29T07:17:32;2.57;;;2.10;;
13799;SDS011;6971;50.028;9.258;2024-03-29T07:22:33;4.73;;;3.93;;
13799;SDS011;6971;50.028;9.258;2024-03-29T07:27:33;2.33;;;1.57;;
13799;SDS011;6971;50.028;9.258;2024-03-29T07:32:35;3.27;;;2.33;;
13799;SDS011;6971;50.028;9.258;2024-03-29T07:37:35;3.00;;;2.03;;
13799;SDS011;6971;50.028;9.258;2024-03-29T07:42:36;11.47;;;7.80;;
13799;SDS011;6971;50.028;9.258;2024-03-29T07:47:36;3.33;;;2.47;;
13799;SDS011;6971;50.028;9.258;2024-03-29T07:52:37;10.43;;;5.17;;
13799;SDS011;6971;50.028;9.258;2024-03-29T07:57:37;1.57;;;1.47;;
13799;SDS011;6971;50.028;9.258;2024-03-29T08:02:38;1.30;;;1.03;;
13799;SDS011;6971;50.028;9.258;2024-03-29T08:07:38;1.27;;;1.17;;
13799;SDS011;6971;50.028;9.258;2024-03-29T08:12:38;3.60;;;2.67;;
13799;SDS011;6971;50.028;9.258;2024-03-29T08:17:39;2.73;;;1.33;;
13799;SDS011;6971;50.028;9.258;2024-03-29T08:22:39;2.13;;;1.70;;
13799;SDS011;6971;50.028;9.258;2024-03-29T08:27:39;3.80;;;1.90;;
13799;SDS011;6971;50.028;9.258;2024-03-29T08:32:40;3.57;;;1.93;;
13799;SDS011;6971;50.028;9.258;2024-03-29T08:37:40;1.67;;;1.33;;
13799;SDS011;6971;50.028;9.258;2024-03-29T08:42:41;1.83;;;1.23;;
13799;SDS011;6971;50.028;9.258;2024-03-29T08:47:41;0.80;;;0.80;;
13799;SDS011;6971;50.028;9.258;2024-03-29T08:52:41;2.40;;;1.60;;
13799;SDS011;6971;50.028;9.258;2024-03-29T08:57:42;1.77;;;1.00;;
13799;SDS011;6971;50.028;9.258;2024-03-29T09:02:42;0.90;;;0.90;;
13799;SDS011;6971;50.028;9.258;2024-03-29T09:07:42;0.87;;;0.87;;
13799;SDS011;6971;50.028;9.258;2024-03-29T09:12:43;1.30;;;1.20;;
13799;SDS011;6971;50.028;9.258;2024-03-29T09:17:43;1.17;;;1.07;;
13799;SDS011;6971;50.028;9.258;2024-03-29T09:22:44;2.27;;;0.80;;
13799;SDS011;6971;50.028;9.258;2024-03-29T09:27:47;0.93;;;0.77;;
13799;SDS011;6971;50.028;9.258;2024-03-29T09:32:48;1.20;;;0.70;;
13799;SDS011;6971;50.028;9.258;2024-03-29T09:37:50;2.17;;;1.00;;
13799;SDS011;6971;50.028;9.258;2024-03-29T09:42:50;0.83;;;0.83;;
13799;SDS011;6971;50.028;9.258;2024-03-29T09:47:51;2.87;;;2.57;;
13799;SDS011;6971;50.028;9.258;2024-03-29T09:52:54;2.90;;;1.20;;
13799;SDS011;6971;50.028;9.258;2024-03-29T09:57:56;1.00;;;0.73;;
13799;SDS011;6971;50.028;9.258;2024-03-29T10:02:58;1.17;;;0.80;;
13799;SDS011;6971;50.028;9.258;2024-03-29T10:07:59;1.50;;;1.20;;
13799;SDS011;6971;50.028;9.258;2024-03-29T10:13:05;2.40;;;1.20;;
13799;SDS011;6971;50.028;9.258;2024-03-29T10:18:08;2.53;;;1.40;;
13799;SDS011;6971;50.028;9.258;2024-03-29T10:23:09;1.63;;;1.40;;
13799;SDS011;6971;50.028;9.258;2024-03-29T10:33:35;1.30;;;1.10;;
13799;SDS011;6971;50.028;9.258;2024-03-29T10:38:36;3.27;;;1.53;;
13799;SDS011;6971;50.028;9.258;2024-03-29T10:43:36;2.70;;;1.07;;
13799;SDS011;6971;50.028;9.258;2024-03-29T10:48:40;1.10;;;1.00;;
13799;SDS011;6971;50.028;9.258;2024-03-29T10:53:41;2.10;;;1.10;;
13799;SDS011;6971;50.028;9.258;2024-03-29T10:58:44;2.37;;;2.10;;
13799;SDS011;6971;50.028;9.258;2024-03-29T11:03:58;5.63;;;2.23;;
13799;SDS011;6971;50.028;9.258;2024-03-29T11:09:05;1.90;;;1.27;;
13799;SDS011;6971;50.028;9.258;2024-03-29T11:14:14;1.40;;;0.83;;
13799;SDS011;6971;50.028;9.258;2024-03-29T11:19:18;1.33;;;1.07;;
13799;SDS011;6971;50.028;9.258;2024-03-29T11:24:18;2.40;;;2.30;;
13799;SDS011;6971;50.028;9.258;2024-03-29T11:29:22;2.20;;;1.40;;
13799;SDS011;6971;50.028;9.258;2024-03-29T11:34:23;0.73;;;0.73;;
13799;SDS011;6971;50.028;9.258;2024-03-29T11:39:24;0.80;;;0.80;;
13799;SDS011;6971;50.028;9.258;2024-03-29T11:44:26;2.53;;;0.90;;
13799;SDS011;6971;50.028;9.258;2024-03-29T11:49:26;1.10;;;0.73;;
13799;SDS011;6971;50.028;9.258;2024-03-29T11:54:26;1.87;;;0.80;;
13799;SDS011;6971;50.028;9.258;2024-03-29T11:59:27;1.10;;;1.00;;
13799;SDS011;6971;50.028;9.258;2024-03-29T12:04:27;1.37;;;1.20;;
13799;SDS011;6971;50.028;9.258;2024-03-29T12:09:28;0.63;;;0.63;;
13799;SDS011;6971;50.028;9.258;2024-03-29T12:14:30;0.93;;;0.90;;
13799;SDS011;6971;50.028;9.258;2024-03-29T12:19:35;1.13;;;0.83;;
13799;SDS011;6971;50.028;9.258;2024-03-29T12:24:39;1.50;;;1.00;;
13799;SDS011;6971;50.028;9.258;2024-03-29T12:29:39;1.57;;;0.80;;
13799;SDS011;6971;50.028;9.258;2024-03-29T12:34:40;1.13;;;0.80;;
13799;SDS011;6971;50.028;9.258;2024-03-29T12:39:43;0.80;;;0.80;;
13799;SDS011;6971;50.028;9.258;2024-03-29T12:44:45;1.53;;;0.83;;
13799;SDS011;6971;50.028;9.258;2024-03-29T12:49:47;3.13;;;0.80;;
13799;SDS011;6971;50.028;9.258;2024-03-29T12:54:48;1.53;;;0.70;;
13799;SDS011;6971;50.028;9.258;2024-03-29T12:59:49;1.83;;;1.00;;
13799;SDS011;6971;50.028;9.258;2024-03-29T13:04:49;1.53;;;1.10;;
13799;SDS011;6971;50.028;9.258;2024-03-29T13:09:51;0.90;;;0.80;;
13799;SDS011;6971;50.028;9.258;2024-03-29T13:14:52;1.50;;;0.93;;
13799;SDS011;6971;50.028;9.258;2024-03-29T13:19:53;2.27;;;1.10;;
13799;SDS011;6971;50.028;9.258;2024-03-29T13:24:53;2.23;;;1.67;;
13799;SDS011;6971;50.028;9.258;2024-03-29T13:29:53;2.57;;;1.20;;
13799;SDS011;6971;50.028;9.258;2024-03-29T13:34:54;1.90;;;1.60;;
13799;SDS011;6971;50.028;9.258;2024-03-29T13:39:55;2.93;;;2.03;;
13799;SDS011;6971;50.028;9.258;2024-03-29T13:44:55;3.23;;;1.90;;
13799;SDS011;6971;50.028;9.258;2024-03-29T13:49:56;2.23;;;1.30;;
13799;SDS011;6971;50.028;9.258;2024-03-29T13:54:57;2.27;;;1.43;;
13799;SDS011;6971;50.028;9.258;2024-03-29T13:59:58;1.37;;;1.13;;
13799;SDS011;6971;50.028;9.258;2024-03-29T14:04:59;1.30;;;1.20;;
13799;SDS011;6971;50.028;9.258;2024-03-29T14:10:00;2.07;;;1.20;;
13799;SDS011;6971;50.028;9.258;2024-03-29T14:15:04;1.83;;;1.27;;
13799;SDS011;6971;50.028;9.258;2024-03-29T14:20:06;1.77;;;1.10;;
13799;SDS011;6971;50.028;9.258;2024-03-29T14:25:07;2.13;;;1.20;;
13799;SDS011;6971;50.028;9.258;2024-03-29T14:30:10;2.03;;;1.60;;
13799;SDS011;6971;50.028;9.258;2024-03-29T14:35:11;1.17;;;0.93;;
13799;SDS011;6971;50.028;9.258;2024-03-29T14:40:12;3.70;;;1.30;;
13799;SDS011;6971;50.028;9.258;2024-03-29T14:45:14;1.57;;;0.90;;
13799;SDS011;6971;50.028;9.258;2024-03-29T14:50:15;3.03;;;1.13;;
13799;SDS011;6971;50.028;9.258;2024-03-29T14:55:15;1.30;;;1.03;;
13799;SDS011;6971;50.028;9.258;2024-03-29T15:00:16;2.70;;;2.13;;
13799;SDS011;6971;50.028;9.258;2024-03-29T15:05:16;7.00;;;3.47;;
13799;SDS011;6971;50.028;9.258;2024-03-29T15:10:17;2.97;;;1.97;;
13799;SDS011;6971;50.028;9.258;2024-03-29T15:15:19;1.90;;;1.50;;
13799;SDS011;6971;50.028;9.258;2024-03-29T15:20:19;5.57;;;3.23;;
13799;SDS011;6971;50.028;9.258;2024-03-29T15:25:19;11.27;;;5.67;;
13799;SDS011;6971;50.028;9.258;2024-03-29T15:30:20;5.27;;;3.43;;
13799;SDS011;6971;50.028;9.258;2024-03-29T15:35:20;5.13;;;3.30;;
13799;SDS011;6971;50.028;9.258;2024-03-29T15:40:21;4.93;;;2.77;;
13799;SDS011;6971;50.028;9.258;2024-03-29T15:45:21;4.60;;;2.77;;
13799;SDS011;6971;50.028;9.258;2024-03-29T15:50:21;3.70;;;3.10;;
13799;SDS011;6971;50.028;9.258;2024-03-29T15:55:22;3.43;;;2.97;;
13799;SDS011;6971;50.028;9.258;2024-03-29T16:00:22;4.90;;;2.90;;
13799;SDS011;6971;50.028;9.258;2024-03-29T16:05:24;3.33;;;2.67;;
13799;SDS011;6971;50.028;9.258;2024-03-29T16:10:25;3.57;;;2.23;;
13799;SDS011;6971;50.028;9.258;2024-03-29T16:15:25;3.77;;;2.47;;
13799;SDS011;6971;50.028;9.258;2024-03-29T16:20:26;5.33;;;3.20;;
13799;SDS011;6971;50.028;9.258;2024-03-29T16:25:26;5.30;;;3.77;;
13799;SDS011;6971;50.028;9.258;2024-03-29T16:30:26;4.20;;;2.73;;
13799;SDS011;6971;50.028;9.258;2024-03-29T16:35:27;2.93;;;2.63;;
13799;SDS011;6971;50.028;9.258;2024-03-29T16:40:27;4.47;;;3.30;;
13799;SDS011;6971;50.028;9.258;2024-03-29T16:45:28;4.53;;;3.70;;
13799;SDS011;6971;50.028;9.258;2024-03-29T16:50:29;2.63;;;2.43;;
13799;SDS011;6971;50.028;9.258;2024-03-29T16:55:30;3.40;;;2.10;;
13799;SDS011;6971;50.028;9.258;2024-03-29T17:00:31;2.60;;;2.33;;
13799;SDS011;6971;50.028;9.258;2024-03-29T17:05:32;3.17;;;2.60;;
13799;SDS011;6971;50.028;9.258;2024-03-29T17:10:32;4.63;;;3.23;;
13799;SDS011;6971;50.028;9.258;2024-03-29T17:15:32;1.90;;;1.70;;
13799;SDS011;6971;50.028;9.258;2024-03-29T17:20:33;2.97;;;2.60;;
13799;SDS011;6971;50.028;9.258;2024-03-29T17:25:33;1.93;;;1.77;;
13799;SDS011;6971;50.028;9.258;2024-03-29T17:30:33;1.77;;;1.67;;
13799;SDS011;6971;50.028;9.258;2024-03-29T17:35:34;3.27;;;1.87;;
13799;SDS011;6971;50.028;9.258;2024-03-29T17:40:34;2.90;;;1.83;;
13799;SDS011;6971;50.028;9.258;2024-03-29T17:45:35;1.93;;;1.63;;
13799;SDS011;6971;50.028;9.258;2024-03-29T17:50:35;1.90;;;1.70;;
13799;SDS011;6971;50.028;9.258;2024-03-29T17:55:35;2.67;;;1.70;;
13799;SDS011;6971;50.028;9.258;2024-03-29T18:00:37;6.40;;;4.13;;
13799;SDS011;6971;50.028;9.258;2024-03-29T18:05:37;2.27;;;2.00;;
13799;SDS011;6971;50.028;9.258;2024-03-29T18:10:38;2.10;;;1.60;;
13799;SDS011;6971;50.028;9.258;2024-03-29T18:15:38;2.43;;;1.90;;
13799;SDS011;6971;50.028;9.258;2024-03-29T18:20:41;2.03;;;1.50;;
13799;SDS011;6971;50.028;9.258;2024-03-29T18:25:42;2.07;;;1.40;;
13799;SDS011;6971;50.028;9.258;2024-03-29T18:30:42;2.20;;;1.60;;
13799;SDS011;6971;50.028;9.258;2024-03-29T18:35:42;2.57;;;1.53;;
13799;SDS011;6971;50.028;9.258;2024-03-29T18:40:43;2.43;;;2.23;;
13799;SDS011;6971;50.028;9.258;2024-03-29T18:45:43;2.20;;;1.73;;
13799;SDS011;6971;50.028;9.258;2024-03-29T18:50:51;1.93;;;1.70;;
13799;SDS011;6971;50.028;9.258;2024-03-29T18:55:56;1.93;;;1.73;;
13799;SDS011;6971;50.028;9.258;2024-03-29T19:00:56;3.37;;;2.40;;
13799;SDS011;6971;50.028;9.258;2024-03-29T19:05:56;2.37;;;1.90;;
13799;SDS011;6971;50.028;9.258;2024-03-29T19:10:57;5.17;;;3.17;;
13799;SDS011;6971;50.028;9.258;2024-03-29T19:15:57;2.97;;;2.40;;
13799;SDS011;6971;50.028;9.258;2024-03-29T19:20:57;14.90;;;6.20;;
13799;SDS011;6971;50.028;9.258;2024-03-29T19:25:58;4.53;;;3.27;;
13799;SDS011;6971;50.028;9.258;2024-03-29T19:30:58;12.43;;;5.43;;
13799;SDS011;6971;50.028;9.258;2024-03-29T19:35:59;5.53;;;3.47;;
13799;SDS011;6971;50.028;9.258;2024-03-29T19:40:59;4.73;;;2.73;;
13799;SDS011;6971;50.028;9.258;2024-03-29T19:46:03;7.57;;;3.57;;
13799;SDS011;6971;50.028;9.258;2024-03-29T19:51:04;2.93;;;2.27;;
13799;SDS011;6971;50.028;9.258;2024-03-29T19:56:04;5.20;;;3.10;;
13799;SDS011;6971;50.028;9.258;2024-03-29T20:01:05;3.73;;;2.50;;
13799;SDS011;6971;50.028;9.258;2024-03-29T20:06:05;5.33;;;2.80;;
13799;SDS011;6971;50.028;9.258;2024-03-29T20:11:11;5.27;;;2.90;;
13799;SDS011;6971;50.028;9.258;2024-03-29T20:16:15;3.70;;;2.60;;
13799;SDS011;6971;50.028;9.258;2024-03-29T20:21:15;3.23;;;2.73;;
13799;SDS011;6971;50.028;9.258;2024-03-29T20:26:16;3.37;;;2.60;;
13799;SDS011;6971;50.028;9.258;2024-03-29T20:31:16;3.93;;;2.30;;
13799;SDS011;6971;50.028;9.258;2024-03-29T20:36:17;5.43;;;3.77;;
13799;SDS011;6971;50.028;9.258;2024-03-29T20:41:17;6.33;;;4.30;;
13799;SDS011;6971;50.028;9.258;2024-03-29T20:46:17;6.40;;;3.00;;
13799;SDS011;6971;50.028;9.258;2024-03-29T20:51:18;14.80;;;6.93;;
13799;SDS011;6971;50.028;9.258;2024-03-29T20:56:18;6.33;;;2.77;;
13799;SDS011;6971;50.028;9.258;2024-03-29T21:01:18;4.33;;;2.27;;
13799;SDS011;6971;50.028;9.258;2024-03-29T21:06:39;2.67;;;2.23;;
13799;SDS011;6971;50.028;9.258;2024-03-29T21:11:39;4.97;;;2.30;;
13799;SDS011;6971;50.028;9.258;2024-03-29T21:16:39;3.90;;;2.37;;
13799;SDS011;6971;50.028;9.258;2024-03-29T21:21:40;6.53;;;2.70;;
13799;SDS011;6971;50.028;9.258;2024-03-29T21:26:40;5.37;;;2.87;;
13799;SDS011;6971;50.028;9.258;2024-03-29T21:31:40;3.53;;;2.30;;
13799;SDS011;6971;50.028;9.258;2024-03-29T21:36:41;4.40;;;2.67;;
13799;SDS011;6971;50.028;9.258;2024-03-29T21:41:41;4.63;;;2.77;;
13799;SDS011;6971;50.028;9.258;2024-03-29T21:46:42;3.63;;;2.07;;
13799;SDS011;6971;50.028;9.258;2024-03-29T21:51:42;4.23;;;2.23;;
13799;SDS011;6971;50.028;9.258;2024-03-29T21:56:42;3.33;;;2.40;;
13799;SDS011;6971;50.028;9.258;2024-03-29T22:01:43;4.00;;;2.90;;
13799;SDS011;6971;50.028;9.258;2024-03-29T22:06:43;4.87;;;2.20;;
13799;SDS011;6971;50.028;9.258;2024-03-29T22:11:43;3.23;;;2.07;;
13799;SDS011;6971;50.028;9.258;2024-03-29T22:16:44;3.87;;;2.13;;
13799;SDS011;6971;50.028;9.258;2024-03-29T22:21:44;4.07;;;2.23;;
13799;SDS011;6971;50.028;9.258;2024-03-29T22:26:45;4.20;;;2.60;;
13799;SDS011;6971;50.028;9.258;2024-03-29T22:31:45;4.23;;;2.13;;
13799;SDS011;6971;50.028;9.258;2024-03-29T22:36:46;3.47;;;1.50;;
13799;SDS011;6971;50.028;9.258;2024-03-29T22:41:46;3.07;;;1.90;;
13799;SDS011;6971;50.028;9.258;2024-03-29T22:46:46;5.20;;;1.97;;
13799;SDS011;6971;50.028;9.258;2024-03-29T22:51:47;2.90;;;2.23;;
13799;SDS011;6971;50.028;9.258;2024-03-29T22:56:47;2.13;;;1.73;;
13799;SDS011;6971;50.028;9.258;2024-03-29T23:01:48;2.30;;;1.60;;
13799;SDS011;6971;50.028;9.258;2024-03-29T23:06:50;5.60;;;1.50;;
13799;SDS011;6971;50.028;9.258;2024-03-29T23:11:50;2.23;;;1.33;;
13799;SDS011;6971;50.028;9.258;2024-03-29T23:16:51;1.87;;;1.37;;
13799;SDS011;6971;50.028;9.258;2024-03-29T23:21:51;2.13;;;1.70;;
13799;SDS011;6971;50.028;9.258;2024-03-29T23:26:51;6.67;;;2.30;;
13799;SDS011;6971;50.028;9.258;2024-03-29T23:31:52;1.70;;;1.55;;
13799;SDS011;6971;50.028;9.258;2024-03-29T23:36:53;1.60;;;1.30;;
13799;SDS011;6971;50.028;9.258;2024-03-29T23:41:54;1.83;;;1.67;;
13799;SDS011;6971;50.028;9.258;2024-03-29T23:46:54;2.03;;;1.40;;
13799;SDS011;6971;50.028;9.258;2024-03-29T23:51:55;1.30;;;1.20;;
13799;SDS011;6971;50.028;9.258;2024-03-29T23:56:55;1.43;;;1.23;;
